Time;durP1;ratioP1;P1;durP2;ratioP2;P2;SDS_P1;SDS_P2;PMS_P1;PMS_P2;Temp;Humidity;BMP_temperature;BMP_pressure;BME280_temperature;BME280_humidity;BME280_pressure;Samples;Min_cycle;Max_cycle;Signal;HPM_P1;HPM_P2
2023/06/02 00:01:03;;;;;;;8.02;4.15;;;;;;;;;;4992983;28;20514;-74
2023/06/02 00:03:31;;;;;;;9.30;3.85;;;;;;;;;;4991313;28;20164;-74
2023/06/02 00:05:59;;;;;;;8.45;3.80;;;;;;;;;;4974774;28;20395;-74
2023/06/02 00:08:28;;;;;;;6.07;3.40;;;;;;;;;;4991063;28;20026;-74
2023/06/02 00:10:54;;;;;;;5.30;3.38;;;;;;;;;;4992773;28;20034;-74
2023/06/02 00:13:20;;;;;;;7.85;3.92;;;;;;;;;;4992668;28;20513;-76
2023/06/02 00:15:46;;;;;;;6.57;4.03;;;;;;;;;;4991150;28;20033;-75
2023/06/02 00:18:11;;;;;;;8.77;3.25;;;;;;;;;;4992204;28;20426;-74
2023/06/02 00:20:37;;;;;;;9.82;4.18;;;;;;;;;;4992218;28;20033;-75
2023/06/02 00:23:03;;;;;;;10.10;4.28;;;;;;;;;;4974310;28;20034;-75
2023/06/02 00:25:30;;;;;;;11.27;4.47;;;;;;;;;;4974589;28;20042;-75
2023/06/02 00:27:56;;;;;;;7.78;3.53;;;;;;;;;;4974528;28;20038;-75
2023/06/02 00:30:21;;;;;;;8.85;3.92;;;;;;;;;;4991957;28;20049;-75
2023/06/02 00:32:47;;;;;;;8.05;4.43;;;;;;;;;;4974617;28;20040;-75
2023/06/02 00:35:12;;;;;;;8.80;4.45;;;;;;;;;;4992078;28;20422;-75
2023/06/02 00:37:38;;;;;;;6.28;4.05;;;;;;;;;;4975708;28;20030;-75
2023/06/02 00:40:04;;;;;;;8.98;5.00;;;;;;;;;;4975801;28;20034;-74
2023/06/02 00:42:30;;;;;;;14.35;4.40;;;;;;;;;;4992242;28;20029;-73
2023/06/02 00:44:55;;;;;;;8.73;3.97;;;;;;;;;;4974928;28;20026;-74
2023/06/02 00:47:21;;;;;;;8.18;4.45;;;;;;;;;;4974162;28;20259;-75
2023/06/02 00:49:46;;;;;;;7.50;3.97;;;;;;;;;;4991715;28;20116;-75
2023/06/02 00:52:14;;;;;;;9.40;4.55;;;;;;;;;;4973891;28;20062;-75
2023/06/02 00:54:40;;;;;;;9.25;4.68;;;;;;;;;;4991597;28;20522;-75
2023/06/02 00:57:06;;;;;;;8.38;4.60;;;;;;;;;;4991401;28;20078;-74
2023/06/02 00:59:32;;;;;;;8.45;4.28;;;;;;;;;;4974412;28;20038;-75
2023/06/02 01:01:57;;;;;;;9.65;4.18;;;;;;;;;;4992016;28;20041;-74
2023/06/02 01:04:23;;;;;;;6.93;4.28;;;;;;;;;;4973925;28;20394;-75
2023/06/02 01:06:50;;;;;;;8.13;4.22;;;;;;;;;;4974238;28;20042;-74
2023/06/02 01:09:16;;;;;;;9.25;4.35;;;;;;;;;;4991367;28;20073;-74
2023/06/02 01:11:48;;;;;;;9.57;4.25;;;;;;;;;;4973637;28;20066;-75
2023/06/02 01:14:14;;;;;;;;;;;;;;;;;;4991371;28;20072;-75
2023/06/02 01:16:40;;;;;;;5.95;4.05;;;;;;;;;;4973998;28;19917;-75
2023/06/02 01:19:13;;;;;;;11.15;4.68;;;;;;;;;;4974219;28;20057;-75
2023/06/02 01:21:48;;;;;;;13.07;4.53;;;;;;;;;;4991616;28;20029;-75
2023/06/02 01:24:14;;;;;;;7.18;4.15;;;;;;;;;;4992135;28;20030;-74
2023/06/02 01:26:40;;;;;;;8.40;4.40;;;;;;;;;;4993154;28;20034;-74
2023/06/02 01:29:07;;;;;;;10.75;4.15;;;;;;;;;;4991052;28;20117;-75
2023/06/02 01:31:46;;;;;;;13.63;4.63;;;;;;;;;;4994311;28;20026;-75
2023/06/02 01:34:19;;;;;;;9.90;3.60;;;;;;;;;;4976424;28;20030;-74
2023/06/02 01:36:47;;;;;;;8.50;5.00;;;;;;;;;;4979196;28;20037;-76
2023/06/02 01:39:16;;;;;;;6.25;4.25;;;;;;;;;;4980494;28;20037;-74
2023/06/02 01:41:44;;;;;;;12.15;6.40;;;;;;;;;;4997928;28;20497;-74
2023/06/02 01:44:11;;;;;;;8.55;4.57;;;;;;;;;;4994020;28;20471;-75
2023/06/02 01:46:39;;;;;;;6.93;4.20;;;;;;;;;;4994406;28;20026;-75
2023/06/02 01:49:14;;;;;;;9.98;4.25;;;;;;;;;;4976488;28;20490;-75
2023/06/02 01:51:39;;;;;;;8.98;4.43;;;;;;;;;;4993309;28;20027;-74
2023/06/02 01:54:05;;;;;;;9.65;4.82;;;;;;;;;;4993895;28;20041;-75
2023/06/02 01:56:32;;;;;;;10.07;4.63;;;;;;;;;;4966572;28;20504;-76
2023/06/02 01:58:58;;;;;;;10.48;5.00;;;;;;;;;;4957449;29;20123;-76
2023/06/02 02:01:24;;;;;;;12.00;4.93;;;;;;;;;;4953365;29;20034;-76
2023/06/02 02:03:53;;;;;;;8.93;4.07;;;;;;;;;;4955589;28;20094;-75
2023/06/02 02:06:24;;;;;;;9.82;4.45;;;;;;;;;;4958044;28;20059;-75
2023/06/02 02:08:50;;;;;;;9.65;5.15;;;;;;;;;;4957993;28;20041;-77
2023/06/02 02:11:16;;;;;;;8.15;4.78;;;;;;;;;;4952406;29;20114;-76
2023/06/02 02:13:41;;;;;;;8.38;5.20;;;;;;;;;;4950663;29;20089;-77
2023/06/02 02:16:07;;;;;;;11.13;5.75;;;;;;;;;;4950093;29;20114;-77
2023/06/02 02:18:32;;;;;;;10.25;5.30;;;;;;;;;;4951643;28;20027;-76
2023/06/02 02:20:57;;;;;;;13.43;4.82;;;;;;;;;;4950003;29;20052;-77
2023/06/02 02:23:23;;;;;;;11.98;5.40;;;;;;;;;;4949871;29;20388;-76
2023/06/02 02:25:48;;;;;;;9.63;5.03;;;;;;;;;;4949553;28;20023;-76
2023/06/02 02:28:14;;;;;;;9.18;4.35;;;;;;;;;;4951461;28;20062;-77
2023/06/02 02:30:40;;;;;;;14.13;4.93;;;;;;;;;;4949796;29;20124;-78
2023/06/02 02:33:05;;;;;;;16.58;4.95;;;;;;;;;;4950027;29;20035;-76
2023/06/02 02:35:31;;;;;;;12.07;5.47;;;;;;;;;;4949720;29;20562;-75
2023/06/02 02:37:56;;;;;;;8.05;4.45;;;;;;;;;;4950550;29;20078;-76
2023/06/02 02:40:23;;;;;;;10.15;5.43;;;;;;;;;;4951650;28;20038;-77
2023/06/02 02:42:48;;;;;;;10.07;4.38;;;;;;;;;;4955615;28;20026;-76
2023/06/02 02:45:14;;;;;;;9.02;4.43;;;;;;;;;;4969136;28;20031;-76
2023/06/02 02:47:40;;;;;;;10.77;5.38;;;;;;;;;;4969536;28;20077;-76
2023/06/02 02:50:05;;;;;;;9.05;4.78;;;;;;;;;;4971992;28;20085;-76
2023/06/02 02:52:32;;;;;;;9.07;5.28;;;;;;;;;;4969655;28;20499;-76
2023/06/02 02:54:57;;;;;;;9.13;4.85;;;;;;;;;;4970403;28;20041;-76
2023/06/02 02:57:23;;;;;;;9.05;5.18;;;;;;;;;;4969925;28;20047;-77
2023/06/02 02:59:49;;;;;;;8.70;4.68;;;;;;;;;;4969931;28;20022;-77
2023/06/02 03:02:15;;;;;;;9.27;4.65;;;;;;;;;;4970088;28;20014;-77
2023/06/02 03:04:41;;;;;;;8.32;4.95;;;;;;;;;;4970247;28;20455;-77
2023/06/02 03:07:06;;;;;;;9.35;4.70;;;;;;;;;;4969955;28;20031;-77
2023/06/02 03:09:32;;;;;;;14.20;5.35;;;;;;;;;;4968983;28;20410;-76
2023/06/02 03:11:58;;;;;;;7.40;4.05;;;;;;;;;;4969353;28;20464;-76
2023/06/02 03:14:28;;;;;;;10.70;5.07;;;;;;;;;;4968955;28;20022;-76
2023/06/02 03:16:54;;;;;;;14.02;5.43;;;;;;;;;;4969211;28;20117;-76
2023/06/02 03:19:23;;;;;;;11.80;5.53;;;;;;;;;;4970505;28;20030;-76
2023/06/02 03:21:51;;;;;;;8.68;4.90;;;;;;;;;;4969588;28;20015;-76
2023/06/02 03:24:18;;;;;;;14.88;5.25;;;;;;;;;;4968982;28;20046;-77
2023/06/02 03:26:45;;;;;;;14.80;5.68;;;;;;;;;;4969153;28;20387;-74
2023/06/02 03:29:12;;;;;;;12.00;4.75;;;;;;;;;;4971486;28;20031;-74
2023/06/02 03:31:37;;;;;;;12.77;5.32;;;;;;;;;;4971239;28;20027;-74
2023/06/02 03:34:04;;;;;;;10.90;5.30;;;;;;;;;;4970948;28;20037;-74
2023/06/02 03:36:35;;;;;;;13.80;4.53;;;;;;;;;;4970534;28;20027;-75
2023/06/02 03:39:05;;;;;;;8.52;4.80;;;;;;;;;;4975173;28;20101;-74
2023/06/02 03:41:31;;;;;;;17.40;4.85;;;;;;;;;;4973949;28;20667;-75
2023/06/02 03:43:56;;;;;;;13.18;5.45;;;;;;;;;;4972822;28;20026;-75
2023/06/02 03:46:22;;;;;;;10.35;5.32;;;;;;;;;;4971913;28;20037;-74
2023/06/02 03:48:49;;;;;;;12.88;5.88;;;;;;;;;;4971973;28;20030;-74
2023/06/02 03:51:14;;;;;;;9.52;4.78;;;;;;;;;;4955540;28;20061;-74
2023/06/02 03:53:40;;;;;;;8.70;4.85;;;;;;;;;;4972188;28;20058;-73
2023/06/02 03:56:05;;;;;;;12.18;5.35;;;;;;;;;;4986524;28;20124;-74
2023/06/02 03:58:31;;;;;;;10.98;5.82;;;;;;;;;;4995105;28;20022;-75
2023/06/02 04:00:58;;;;;;;11.18;4.93;;;;;;;;;;4995993;28;20022;-75
2023/06/02 04:03:23;;;;;;;13.02;5.90;;;;;;;;;;4994692;28;20061;-75
2023/06/02 04:05:49;;;;;;;7.88;5.15;;;;;;;;;;5012313;28;20061;-75
2023/06/02 04:08:16;;;;;;;9.23;5.03;;;;;;;;;;5011871;28;20518;-75
2023/06/02 04:10:46;;;;;;;14.02;6.00;;;;;;;;;;4994226;28;20556;-75
2023/06/02 04:13:11;;;;;;;11.00;5.28;;;;;;;;;;4994471;28;20430;-75
2023/06/02 04:15:37;;;;;;;26.48;8.15;;;;;;;;;;5011984;28;20088;-75
2023/06/02 04:18:04;;;;;;;9.43;5.18;;;;;;;;;;4994726;28;20041;-75
2023/06/02 04:20:29;;;;;;;11.85;5.13;;;;;;;;;;4994080;28;20399;-75
2023/06/02 04:22:55;;;;;;;9.13;5.32;;;;;;;;;;5012029;28;20033;-74
2023/06/02 04:25:21;;;;;;;15.45;5.57;;;;;;;;;;5011719;28;20388;-76
2023/06/02 04:27:46;;;;;;;13.43;5.88;;;;;;;;;;5011833;28;20425;-75
2023/06/02 04:30:12;;;;;;;11.95;5.00;;;;;;;;;;5012023;28;20034;-74
2023/06/02 04:32:37;;;;;;;11.32;6.72;;;;;;;;;;4994088;28;20113;-76
2023/06/02 04:35:03;;;;;;;14.10;6.38;;;;;;;;;;4994406;28;20087;-74
2023/06/02 04:37:28;;;;;;;15.43;5.35;;;;;;;;;;5011569;28;20029;-74
2023/06/02 04:39:55;;;;;;;9.68;5.72;;;;;;;;;;5011060;28;20095;-76
2023/06/02 04:42:21;;;;;;;14.98;5.10;;;;;;;;;;5011551;28;20034;-74
2023/06/02 04:44:48;;;;;;;8.43;4.90;;;;;;;;;;5011581;28;20050;-77
2023/06/02 04:47:15;;;;;;;10.50;4.55;;;;;;;;;;4993342;28;20505;-75
2023/06/02 04:49:41;;;;;;;10.07;4.97;;;;;;;;;;4992762;28;20369;-75
2023/06/02 04:52:07;;;;;;;11.70;5.10;;;;;;;;;;4993508;28;20030;-75
2023/06/02 04:54:34;;;;;;;13.65;4.75;;;;;;;;;;5011299;28;20041;-76
2023/06/02 04:57:00;;;;;;;10.30;5.38;;;;;;;;;;5011062;28;20049;-76
2023/06/02 04:59:25;;;;;;;10.88;5.03;;;;;;;;;;4993640;28;20029;-76
2023/06/02 05:01:52;;;;;;;11.35;5.05;;;;;;;;;;5011562;28;20044;-75
2023/06/02 05:04:19;;;;;;;14.23;5.05;;;;;;;;;;5011317;28;20030;-75
2023/06/02 05:06:45;;;;;;;13.90;4.68;;;;;;;;;;4994891;28;20030;-75
2023/06/02 05:09:11;;;;;;;12.65;5.28;;;;;;;;;;4992322;28;20033;-76
2023/06/02 05:11:37;;;;;;;10.60;4.80;;;;;;;;;;4993239;28;20030;-76
2023/06/02 05:14:02;;;;;;;15.88;5.55;;;;;;;;;;4994543;28;20044;-74
2023/06/02 05:16:30;;;;;;;15.52;5.35;;;;;;;;;;4991737;28;20030;-75
2023/06/02 05:18:56;;;;;;;11.70;5.25;;;;;;;;;;5007177;28;20037;-73
2023/06/02 05:21:21;;;;;;;9.75;4.57;;;;;;;;;;5009083;28;20418;-73
2023/06/02 05:23:48;;;;;;;13.38;5.80;;;;;;;;;;4991653;28;20029;-74
2023/06/02 05:26:15;;;;;;;14.57;7.22;;;;;;;;;;5009479;28;20037;-74
2023/06/02 05:28:40;;;;;;;13.93;5.20;;;;;;;;;;4990511;28;20121;-75
2023/06/02 05:31:06;;;;;;;15.65;5.18;;;;;;;;;;5008966;28;20113;-72
2023/06/02 05:33:37;;;;;;;11.80;5.25;;;;;;;;;;5010114;28;20061;-75
2023/06/02 05:36:03;;;;;;;16.33;5.97;;;;;;;;;;4991582;28;20051;-76
2023/06/02 05:38:31;;;;;;;16.55;5.65;;;;;;;;;;4992125;28;20509;-78
2023/06/02 05:40:57;;;;;;;14.25;5.78;;;;;;;;;;5009040;28;20072;-76
2023/06/02 05:43:22;;;;;;;13.98;5.97;;;;;;;;;;4988987;28;20061;-76
2023/06/02 05:45:48;;;;;;;16.60;5.57;;;;;;;;;;4991369;28;20030;-77
2023/06/02 05:48:13;;;;;;;9.80;5.55;;;;;;;;;;4994530;28;20056;-76
2023/06/02 05:50:41;;;;;;;17.20;5.50;;;;;;;;;;5000850;28;20069;-78
2023/06/02 05:53:06;;;;;;;20.15;5.40;;;;;;;;;;4996639;28;20030;-76
2023/06/02 05:55:33;;;;;;;10.30;5.57;;;;;;;;;;5014043;28;20034;-74
2023/06/02 05:57:59;;;;;;;11.63;5.05;;;;;;;;;;5012943;28;20103;-76
2023/06/02 06:00:24;;;;;;;9.65;5.18;;;;;;;;;;4998258;28;20042;-76
2023/06/02 06:02:50;;;;;;;15.25;5.68;;;;;;;;;;5009420;28;20328;-75
2023/06/02 06:05:16;;;;;;;9.60;5.70;;;;;;;;;;5009944;28;20026;-75
2023/06/02 06:07:41;;;;;;;11.70;5.53;;;;;;;;;;4991856;28;20124;-77
2023/06/02 06:10:07;;;;;;;11.00;5.55;;;;;;;;;;5010848;28;20104;-72
2023/06/02 06:12:33;;;;;;;16.90;6.20;;;;;;;;;;4991110;28;20037;-73
2023/06/02 06:14:58;;;;;;;17.80;5.22;;;;;;;;;;4999172;28;20917;-71
2023/06/02 06:17:24;;;;;;;15.07;6.38;;;;;;;;;;4990373;28;20049;-74
2023/06/02 06:19:49;;;;;;;13.38;5.20;;;;;;;;;;4991225;28;20045;-74
2023/06/02 06:22:15;;;;;;;16.90;6.68;;;;;;;;;;4993501;28;20119;-75
2023/06/02 06:24:40;;;;;;;10.18;5.85;;;;;;;;;;4990905;28;20481;-73
2023/06/02 06:27:06;;;;;;;17.50;6.25;;;;;;;;;;5008157;28;20036;-74
2023/06/02 06:29:31;;;;;;;16.55;6.13;;;;;;;;;;4988758;28;20458;-76
2023/06/02 06:31:57;;;;;;;15.30;5.57;;;;;;;;;;4991211;28;20096;-72
2023/06/02 06:34:27;;;;;;;11.77;7.13;;;;;;;;;;4989478;28;20100;-75
2023/06/02 06:36:52;;;;;;;14.93;6.13;;;;;;;;;;5010452;28;20088;-73
2023/06/02 06:39:18;;;;;;;29.83;10.82;;;;;;;;;;5006451;28;20037;-73
2023/06/02 06:41:44;;;;;;;12.45;5.45;;;;;;;;;;5003626;28;20036;-73
2023/06/02 06:44:09;;;;;;;14.18;5.80;;;;;;;;;;4984706;28;20042;-72
2023/06/02 06:46:35;;;;;;;18.13;6.60;;;;;;;;;;4989456;28;20422;-72
2023/06/02 06:49:01;;;;;;;16.23;6.00;;;;;;;;;;5008896;28;20117;-74
2023/06/02 06:51:26;;;;;;;12.10;5.78;;;;;;;;;;4986329;28;20471;-73
2023/06/02 06:53:52;;;;;;;34.00;8.73;;;;;;;;;;5008048;28;20033;-73
2023/06/02 06:56:18;;;;;;;14.77;5.88;;;;;;;;;;4981924;28;20052;-74
2023/06/02 06:58:43;;;;;;;14.20;5.78;;;;;;;;;;5002643;28;20450;-73
2023/06/02 07:01:10;;;;;;;11.85;6.28;;;;;;;;;;5006115;28;20026;-70
2023/06/02 07:03:35;;;;;;;14.88;6.00;;;;;;;;;;4993541;28;20034;-75
2023/06/02 07:06:01;;;;;;;14.68;5.57;;;;;;;;;;5003184;28;20496;-76
2023/06/02 07:08:27;;;;;;;20.45;5.97;;;;;;;;;;5004191;28;20076;-72
2023/06/02 07:10:52;;;;;;;17.00;5.43;;;;;;;;;;5010328;28;20107;-73
2023/06/02 07:13:18;;;;;;;31.67;10.98;;;;;;;;;;4978487;28;20124;-73
2023/06/02 07:15:45;;;;;;;15.10;5.28;;;;;;;;;;4988877;28;20030;-73
2023/06/02 07:18:38;;;;;;;10.00;4.93;;;;;;;;;;4987927;28;20037;-72
2023/06/02 07:21:04;;;;;;;13.00;5.57;;;;;;;;;;4991529;28;20029;-72
2023/06/02 07:23:29;;;;;;;12.23;5.65;;;;;;;;;;5007482;28;20411;-72
2023/06/02 07:26:17;;;;;;;11.98;5.55;;;;;;;;;;4987751;28;20026;-72
2023/06/02 07:28:45;;;;;;;12.57;5.80;;;;;;;;;;5014399;28;20703;-73
2023/06/02 07:31:10;;;;;;;15.30;5.28;;;;;;;;;;4994331;28;20064;-74
2023/06/02 07:33:36;;;;;;;11.30;5.65;;;;;;;;;;4994323;28;20064;-75
2023/06/02 07:36:01;;;;;;;9.05;4.57;;;;;;;;;;4986765;28;20489;-71
2023/06/02 07:38:27;;;;;;;12.55;5.55;;;;;;;;;;5008320;28;20068;-73
2023/06/02 07:40:52;;;;;;;14.23;6.65;;;;;;;;;;5010646;28;20037;-73
2023/06/02 07:43:18;;;;;;;12.30;5.50;;;;;;;;;;5011073;28;20108;-75
2023/06/02 07:45:43;;;;;;;17.90;5.65;;;;;;;;;;4988157;28;20025;-73
2023/06/02 07:48:09;;;;;;;15.60;5.32;;;;;;;;;;5009874;28;20033;-73
2023/06/02 07:50:34;;;;;;;13.80;5.45;;;;;;;;;;4992463;28;20034;-72
2023/06/02 07:53:02;;;;;;;27.38;8.07;;;;;;;;;;4989477;28;20465;-73
2023/06/02 07:55:37;;;;;;;20.23;7.70;;;;;;;;;;5000471;28;20439;-72
2023/06/02 07:58:02;;;;;;;16.60;6.28;;;;;;;;;;4982432;28;20510;-71
2023/06/02 08:00:28;;;;;;;15.63;6.07;;;;;;;;;;4990671;28;20125;-72
2023/06/02 08:02:53;;;;;;;16.98;6.55;;;;;;;;;;4992778;28;20034;-73
2023/06/02 08:05:19;;;;;;;13.30;6.13;;;;;;;;;;4988037;28;20132;-75
2023/06/02 08:07:45;;;;;;;18.88;7.30;;;;;;;;;;5010260;28;20594;-74
2023/06/02 08:10:12;;;;;;;11.68;5.70;;;;;;;;;;4986189;28;21711;-74
2023/06/02 08:12:37;;;;;;;20.77;6.43;;;;;;;;;;4977166;28;20030;-74
2023/06/02 08:15:05;;;;;;;16.30;6.70;;;;;;;;;;4980084;28;20032;-74
2023/06/02 08:17:30;;;;;;;14.23;6.47;;;;;;;;;;4988294;28;20026;-74
2023/06/02 08:20:01;;;;;;;14.05;5.97;;;;;;;;;;4986911;28;20029;-73
2023/06/02 08:22:28;;;;;;;14.23;6.00;;;;;;;;;;4985286;28;20030;-73
2023/06/02 08:24:54;;;;;;;12.70;5.40;;;;;;;;;;4980259;28;20117;-73
2023/06/02 08:27:21;;;;;;;15.75;6.20;;;;;;;;;;4986736;28;20091;-74
2023/06/02 08:29:49;;;;;;;18.58;6.78;;;;;;;;;;4986311;28;20028;-74
2023/06/02 08:32:19;;;;;;;14.70;6.30;;;;;;;;;;4998521;28;20718;-74
2023/06/02 08:34:47;;;;;;;11.32;5.93;;;;;;;;;;4979445;28;20052;-73
2023/06/02 08:37:16;;;;;;;16.80;6.50;;;;;;;;;;4983116;28;20107;-73
2023/06/02 08:39:46;;;;;;;13.60;5.90;;;;;;;;;;4981854;28;20061;-72
2023/06/02 08:42:12;;;;;;;12.45;5.45;;;;;;;;;;4981638;28;20038;-72
2023/06/02 08:44:40;;;;;;;13.32;5.88;;;;;;;;;;4996867;28;20129;-73
2023/06/02 08:47:10;;;;;;;19.85;6.65;;;;;;;;;;4981725;28;20081;-72
2023/06/02 08:49:36;;;;;;;10.60;5.95;;;;;;;;;;4981714;28;20022;-73
2023/06/02 08:52:12;;;;;;;11.88;6.25;;;;;;;;;;4979681;28;20030;-75
2023/06/02 08:54:41;;;;;;;15.18;5.85;;;;;;;;;;4974929;28;20109;-73
2023/06/02 08:57:09;;;;;;;18.35;6.72;;;;;;;;;;4989302;28;20261;-71
2023/06/02 08:59:36;;;;;;;14.60;5.82;;;;;;;;;;4986245;28;20022;-73
2023/06/02 09:02:01;;;;;;;13.50;7.70;;;;;;;;;;4972170;28;20029;-73
2023/06/02 09:04:28;;;;;;;7.93;5.07;;;;;;;;;;4998280;28;20192;-73
2023/06/02 09:07:16;;;;;;;11.57;6.03;;;;;;;;;;5001128;28;20583;-71
2023/06/02 09:09:44;;;;;;;11.57;5.32;;;;;;;;;;5006600;28;20120;-75
2023/06/02 09:12:13;;;;;;;7.97;4.70;;;;;;;;;;5000380;28;20049;-73
2023/06/02 09:14:39;;;;;;;6.70;4.85;;;;;;;;;;5003938;28;20030;-74
2023/06/02 09:17:28;;;;;;;10.38;4.90;;;;;;;;;;4986201;28;20446;-73
2023/06/02 09:19:56;;;;;;;10.55;5.03;;;;;;;;;;4996966;28;20486;-74
2023/06/02 09:22:22;;;;;;;15.75;5.57;;;;;;;;;;4985296;28;20084;-73
2023/06/02 09:24:48;;;;;;;10.82;5.90;;;;;;;;;;4978953;28;20034;-74
2023/06/02 09:27:15;;;;;;;8.55;5.60;;;;;;;;;;4976129;28;20088;-74
2023/06/02 09:29:43;;;;;;;14.40;5.78;;;;;;;;;;4983300;28;20708;-74
2023/06/02 09:32:18;;;;;;;11.27;5.25;;;;;;;;;;5004280;28;20054;-74
2023/06/02 09:34:45;;;;;;;13.27;5.53;;;;;;;;;;5010414;28;20454;-72
2023/06/02 09:37:18;;;;;;;14.27;5.57;;;;;;;;;;4992200;28;20061;-74
2023/06/02 09:39:49;;;;;;;10.27;5.68;;;;;;;;;;5007041;28;20030;-74
2023/06/02 09:42:17;;;;;;;12.10;4.93;;;;;;;;;;4988761;28;20033;-75
2023/06/02 09:45:03;;;;;;;16.88;5.38;;;;;;;;;;4994695;28;20029;-76
2023/06/02 09:47:35;;;;;;;13.45;6.25;;;;;;;;;;5009647;28;20408;-73
2023/06/02 09:50:01;;;;;;;13.10;6.80;;;;;;;;;;4982389;28;20553;-74
2023/06/02 09:52:26;;;;;;;10.98;5.43;;;;;;;;;;4999621;28;20029;-74
2023/06/02 09:54:53;;;;;;;11.52;5.35;;;;;;;;;;4987772;28;20045;-74
2023/06/02 09:57:19;;;;;;;10.35;4.75;;;;;;;;;;4984880;28;20038;-75
2023/06/02 09:59:45;;;;;;;11.57;5.30;;;;;;;;;;4984114;28;20036;-75
2023/06/02 10:02:12;;;;;;;10.48;4.63;;;;;;;;;;4975793;28;20033;-73
2023/06/02 10:04:38;;;;;;;9.23;4.78;;;;;;;;;;4988040;28;20074;-74
2023/06/02 10:07:42;;;;;;;12.60;4.82;;;;;;;;;;4983509;28;20049;-76
2023/06/02 10:10:21;;;;;;;11.32;6.03;;;;;;;;;;4962817;28;20033;-75
2023/06/02 10:12:56;;;;;;;7.18;5.00;;;;;;;;;;4997969;28;20125;-74
2023/06/02 10:15:37;;;;;;;12.30;5.45;;;;;;;;;;4986462;28;20116;-72
2023/06/02 10:18:16;;;;;;;7.78;4.97;;;;;;;;;;5014801;28;20029;-69
2023/06/02 10:21:19;;;;;;;12.55;5.00;;;;;;;;;;5011725;28;20034;-76
2023/06/02 10:24:04;;;;;;;12.43;5.47;;;;;;;;;;4987442;28;20117;-76
2023/06/02 10:26:57;;;;;;;12.43;5.72;;;;;;;;;;4984298;28;20399;-75
2023/06/02 10:29:28;;;;;;;18.50;6.72;;;;;;;;;;5002527;28;20038;-76
2023/06/02 10:31:54;;;;;;;8.65;5.15;;;;;;;;;;4974732;28;20033;-75
2023/06/02 10:34:35;;;;;;;14.23;6.00;;;;;;;;;;4987711;28;20042;-75
2023/06/02 10:37:00;;;;;;;9.27;5.40;;;;;;;;;;5006153;28;20030;-75
2023/06/02 10:39:41;;;;;;;8.93;6.00;;;;;;;;;;4984282;28;20052;-76
2023/06/02 10:42:12;;;;;;;12.82;6.55;;;;;;;;;;4983579;28;20116;-74
2023/06/02 10:44:38;;;;;;;11.23;5.38;;;;;;;;;;5001828;28;20064;-74
2023/06/02 10:47:18;;;;;;;11.90;6.13;;;;;;;;;;4986030;28;20470;-74
2023/06/02 10:49:51;;;;;;;12.35;5.63;;;;;;;;;;4987390;28;20128;-75
2023/06/02 10:52:16;;;;;;;13.63;5.97;;;;;;;;;;4988317;28;20100;-75
2023/06/02 10:54:42;;;;;;;10.75;5.30;;;;;;;;;;4986309;28;20030;-75
2023/06/02 10:57:09;;;;;;;9.20;5.15;;;;;;;;;;4980887;28;20078;-77
2023/06/02 10:59:36;;;;;;;11.68;5.10;;;;;;;;;;4981480;28;20030;-75
2023/06/02 11:02:02;;;;;;;10.88;5.53;;;;;;;;;;4986009;28;20018;-75
2023/06/02 11:04:38;;;;;;;9.52;5.45;;;;;;;;;;4984562;28;20031;-75
2023/06/02 11:07:18;;;;;;;10.50;5.25;;;;;;;;;;4981407;28;20090;-74
2023/06/02 11:09:49;;;;;;;11.77;5.30;;;;;;;;;;4982717;28;20071;-75
2023/06/02 11:12:15;;;;;;;10.48;4.38;;;;;;;;;;4986906;28;20034;-73
2023/06/02 11:15:00;;;;;;;12.30;4.40;;;;;;;;;;4985369;28;20039;-74
2023/06/02 11:17:30;;;;;;;11.13;4.60;;;;;;;;;;4992377;28;20057;-75
2023/06/02 11:19:57;;;;;;;7.97;4.10;;;;;;;;;;4995255;28;20517;-75
2023/06/02 11:22:23;;;;;;;9.93;4.28;;;;;;;;;;4985405;28;20036;-76
2023/06/02 11:24:50;;;;;;;9.43;4.95;;;;;;;;;;4984563;28;20029;-75
2023/06/02 11:27:16;;;;;;;8.70;4.25;;;;;;;;;;4982576;28;20113;-75
2023/06/02 11:30:05;;;;;;;14.13;4.68;;;;;;;;;;4987312;28;20116;-76
2023/06/02 11:32:31;;;;;;;12.00;4.40;;;;;;;;;;4994479;28;20018;-75
2023/06/02 11:35:01;;;;;;;10.05;4.22;;;;;;;;;;4988470;28;20019;-76
2023/06/02 11:37:27;;;;;;;6.63;3.95;;;;;;;;;;4985259;28;20030;-76
2023/06/02 11:39:53;;;;;;;11.88;4.57;;;;;;;;;;4985800;28;20178;-75
2023/06/02 11:42:19;;;;;;;9.45;4.28;;;;;;;;;;4986443;28;20038;-73
2023/06/02 11:44:49;;;;;;;15.20;5.10;;;;;;;;;;4989819;28;20026;-75
2023/06/02 11:47:20;;;;;;;5.70;3.72;;;;;;;;;;4992767;28;20030;-75
2023/06/02 11:49:47;;;;;;;9.93;4.47;;;;;;;;;;4983546;28;20435;-75
2023/06/02 11:52:13;;;;;;;15.07;5.30;;;;;;;;;;4993005;28;20312;-76
2023/06/02 11:54:54;;;;;;;8.25;4.80;;;;;;;;;;4989916;28;20034;-74
2023/06/02 11:57:33;;;;;;;9.75;4.68;;;;;;;;;;5003189;28;20050;-76
2023/06/02 12:00:12;;;;;;;10.63;4.38;;;;;;;;;;5009406;28;20462;-75
2023/06/02 12:02:43;;;;;;;13.05;4.68;;;;;;;;;;4997334;28;20022;-75
2023/06/02 12:05:34;;;;;;;12.57;4.68;;;;;;;;;;5018091;28;20025;-76
2023/06/02 12:08:26;;;;;;;7.97;4.20;;;;;;;;;;5011607;28;20430;-74
2023/06/02 12:10:54;;;;;;;12.07;5.63;;;;;;;;;;4996165;28;20033;-76
2023/06/02 12:13:26;;;;;;;11.55;4.80;;;;;;;;;;5002412;28;20344;-75
2023/06/02 12:15:53;;;;;;;8.55;5.22;;;;;;;;;;5016335;28;20036;-80
2023/06/02 12:18:32;;;;;;;8.02;3.58;;;;;;;;;;4993397;28;20121;-75
2023/06/02 12:20:59;;;;;;;11.20;3.85;;;;;;;;;;4998265;28;20025;-75
2023/06/02 12:23:44;;;;;;;13.13;3.60;;;;;;;;;;5014404;28;20061;-75
2023/06/02 12:26:10;;;;;;;11.02;4.07;;;;;;;;;;5005009;28;20049;-75
2023/06/02 12:28:37;;;;;;;9.63;4.30;;;;;;;;;;5003392;28;20471;-75
2023/06/02 12:31:03;;;;;;;8.88;5.03;;;;;;;;;;5004896;28;20069;-76
2023/06/02 12:33:29;;;;;;;11.77;4.10;;;;;;;;;;4989649;28;20030;-75
2023/06/02 12:35:55;;;;;;;11.80;4.00;;;;;;;;;;5012588;28;20155;-75
2023/06/02 12:38:20;;;;;;;8.07;3.90;;;;;;;;;;5003092;28;20104;-75
2023/06/02 12:40:47;;;;;;;7.15;4.13;;;;;;;;;;5003811;28;20021;-76
2023/06/02 12:43:13;;;;;;;11.23;4.45;;;;;;;;;;5006468;28;20386;-75
2023/06/02 12:45:39;;;;;;;13.65;4.38;;;;;;;;;;5005499;28;20109;-75
2023/06/02 12:48:06;;;;;;;11.05;4.10;;;;;;;;;;4980823;28;20113;-76
2023/06/02 12:50:32;;;;;;;8.38;3.55;;;;;;;;;;5005045;28;20064;-76
2023/06/02 12:52:57;;;;;;;9.27;3.60;;;;;;;;;;4996112;28;20114;-76
2023/06/02 12:55:23;;;;;;;10.90;3.90;;;;;;;;;;4986093;28;20061;-76
2023/06/02 12:57:50;;;;;;;8.77;3.33;;;;;;;;;;5003122;28;20364;-76
2023/06/02 13:00:19;;;;;;;10.13;4.13;;;;;;;;;;4999850;28;21288;-77
2023/06/02 13:02:44;;;;;;;10.15;4.10;;;;;;;;;;4989974;28;20105;-76
2023/06/02 13:05:11;;;;;;;5.47;3.47;;;;;;;;;;4982244;28;20596;-77
2023/06/02 13:07:38;;;;;;;8.02;4.13;;;;;;;;;;4996128;28;20127;-75
2023/06/02 13:10:06;;;;;;;9.90;4.18;;;;;;;;;;4972907;28;20060;-77
2023/06/02 13:12:31;;;;;;;5.53;3.08;;;;;;;;;;4984822;28;20026;-76
2023/06/02 13:15:05;;;;;;;9.65;3.72;;;;;;;;;;5004988;28;20072;-76
2023/06/02 13:17:32;;;;;;;6.22;3.47;;;;;;;;;;4985186;28;20034;-76
2023/06/02 13:19:59;;;;;;;8.27;3.67;;;;;;;;;;5005430;28;20057;-76
2023/06/02 13:22:28;;;;;;;10.95;3.35;;;;;;;;;;5000584;28;20068;-76
2023/06/02 13:24:54;;;;;;;9.10;3.83;;;;;;;;;;5007294;28;20117;-75
2023/06/02 13:27:19;;;;;;;12.95;3.50;;;;;;;;;;4985155;28;20094;-75
2023/06/02 13:29:45;;;;;;;5.40;3.20;;;;;;;;;;4985664;28;20049;-75
2023/06/02 13:32:11;;;;;;;5.93;3.10;;;;;;;;;;5009753;28;20429;-76
2023/06/02 13:34:37;;;;;;;8.55;3.10;;;;;;;;;;4969757;28;20030;-78
2023/06/02 13:37:02;;;;;;;10.85;3.53;;;;;;;;;;5004469;28;20029;-76
2023/06/02 13:39:28;;;;;;;8.82;3.08;;;;;;;;;;5009655;28;20034;-76
2023/06/02 13:41:53;;;;;;;8.55;3.65;;;;;;;;;;4985345;28;20049;-77
2023/06/02 13:44:20;;;;;;;9.82;3.55;;;;;;;;;;5012647;28;20029;-76
2023/06/02 13:46:47;;;;;;;6.10;3.05;;;;;;;;;;4990682;28;20034;-76
2023/06/02 13:49:19;;;;;;;6.15;3.20;;;;;;;;;;4988033;28;20060;-76
2023/06/02 13:51:47;;;;;;;7.47;2.97;;;;;;;;;;4988236;28;20454;-75
2023/06/02 13:54:15;;;;;;;8.00;3.30;;;;;;;;;;4986499;28;20081;-75
2023/06/02 13:56:40;;;;;;;7.25;3.00;;;;;;;;;;4987384;28;20034;-76
2023/06/02 13:59:06;;;;;;;5.93;2.80;;;;;;;;;;5002084;28;20046;-75
2023/06/02 14:01:32;;;;;;;8.85;2.72;;;;;;;;;;4991814;28;20034;-77
2023/06/02 14:03:57;;;;;;;12.77;3.17;;;;;;;;;;5014765;28;20029;-76
2023/06/02 14:06:23;;;;;;;7.18;3.00;;;;;;;;;;4988852;28;20044;-75
2023/06/02 14:08:48;;;;;;;10.23;2.83;;;;;;;;;;4989026;28;20128;-76
2023/06/02 14:11:14;;;;;;;7.65;2.88;;;;;;;;;;5002056;28;20033;-76
2023/06/02 14:13:40;;;;;;;7.20;2.53;;;;;;;;;;5007310;28;20203;-77
2023/06/02 14:16:05;;;;;;;10.05;3.25;;;;;;;;;;4989175;28;20130;-77
2023/06/02 14:18:31;;;;;;;9.68;4.10;;;;;;;;;;5002493;28;20068;-77
2023/06/02 14:20:58;;;;;;;9.75;3.38;;;;;;;;;;4989666;28;20045;-75
2023/06/02 14:23:23;;;;;;;8.90;3.00;;;;;;;;;;4989774;28;20121;-76
2023/06/02 14:25:49;;;;;;;11.60;3.47;;;;;;;;;;4991940;28;20140;-76
2023/06/02 14:28:15;;;;;;;9.00;2.90;;;;;;;;;;4991525;28;20425;-76
2023/06/02 14:30:41;;;;;;;6.10;3.00;;;;;;;;;;5008743;28;20041;-77
2023/06/02 14:33:07;;;;;;;7.70;2.88;;;;;;;;;;4977682;28;20091;-76
2023/06/02 14:35:33;;;;;;;8.93;3.13;;;;;;;;;;5013222;28;20044;-77
2023/06/02 14:37:58;;;;;;;9.23;3.33;;;;;;;;;;5017715;28;20045;-76
2023/06/02 14:40:24;;;;;;;9.75;3.63;;;;;;;;;;5016777;28;20397;-76